Time;durP1;ratioP1;P1;durP2;ratioP2;P2;SDS_P1;SDS_P2;PMS_P1;PMS_P2;Temp;Humidity;BMP_temperature;BMP_pressure;BME280_temperature;BME280_humidity;BME280_pressure;Samples;Min_cycle;Max_cycle;Signal;HPM_P1;HPM_P2
2023/11/29 00:01:26;;;;;;;12.87;8.87;;;;;;;-0.84;100.00;151156.72;4985315;28;20453;-84
2023/11/29 00:03:52;;;;;;;12.60;8.17;;;;;;;-0.87;100.00;151149.03;4983291;28;20495;-85
2023/11/29 00:06:19;;;;;;;10.50;7.83;;;;;;;-0.91;100.00;151140.09;4988641;28;20484;-84
2023/11/29 00:08:46;;;;;;;11.00;7.60;;;;;;;-0.94;100.00;151131.09;4987865;28;20450;-84
2023/11/29 00:11:14;;;;;;;12.93;8.13;;;;;;;-0.96;100.00;151127.28;4991197;28;20485;-84
2023/11/29 00:13:40;;;;;;;12.60;7.00;;;;;;;-1.00;100.00;151115.69;4986889;28;20450;-84
2023/11/29 00:16:08;;;;;;;13.17;8.57;;;;;;;-0.98;100.00;151120.88;4989612;28;20461;-84
2023/11/29 00:18:34;;;;;;;10.67;7.60;;;;;;;-0.99;100.00;151118.28;4985064;28;20493;-84
2023/11/29 00:21:02;;;;;;;11.67;8.53;;;;;;;-0.90;100.00;151141.38;4983164;28;21202;-84
2023/11/29 00:23:30;;;;;;;11.57;8.33;;;;;;;-0.90;100.00;151141.38;4987518;28;20454;-85
2023/11/29 00:25:57;;;;;;;12.43;8.00;;;;;;;-0.91;100.00;151140.09;4983563;28;20488;-84
2023/11/29 00:28:25;;;;;;;16.00;8.70;;;;;;;-0.92;100.00;151136.22;4986706;28;20456;-84
2023/11/29 00:30:51;;;;;;;13.03;8.83;;;;;;;-0.88;100.00;151146.50;4984827;28;20453;-84
2023/11/29 00:33:18;;;;;;;15.33;9.60;;;;;;;-0.87;100.00;151149.03;4985874;28;20905;-85
2023/11/29 00:35:44;;;;;;;12.70;7.70;;;;;;;-0.86;100.00;151151.63;4968456;28;20454;-84
2023/11/29 00:38:11;;;;;;;13.93;8.57;;;;;;;-0.88;100.00;151146.50;4984201;28;20468;-84
2023/11/29 00:40:38;;;;;;;14.20;9.90;;;;;;;-0.90;100.00;151141.38;4983811;28;20460;-85
2023/11/29 00:43:04;;;;;;;15.20;8.60;;;;;;;-0.86;100.00;151152.91;4983902;28;20458;-84
2023/11/29 00:45:32;;;;;;;16.33;10.17;;;;;;;-0.84;100.00;151156.72;4980661;28;20468;-84
2023/11/29 00:47:59;;;;;;;15.37;9.40;;;;;;;-0.84;100.00;151156.72;4985241;28;20920;-84
2023/11/29 00:50:25;;;;;;;14.30;8.77;;;;;;;-0.87;100.00;151149.03;4985897;28;20472;-84
2023/11/29 00:52:52;;;;;;;14.00;8.20;;;;;;;-0.86;100.00;151152.91;4987957;28;20491;-84
2023/11/29 00:55:18;;;;;;;14.60;9.07;;;;;;;-0.86;100.00;151152.91;4991281;28;20454;-84
2023/11/29 00:57:45;;;;;;;12.63;8.60;;;;;;;-0.89;100.00;151143.91;4970639;28;20456;-84
2023/11/29 01:00:13;;;;;;;15.33;9.33;;;;;;;-0.94;100.00;151131.09;4983108;28;20971;-84
2023/11/29 01:02:41;;;;;;;15.67;9.40;;;;;;;-0.97;100.00;151124.69;4986508;28;20485;-84
2023/11/29 01:05:08;;;;;;;9.80;7.17;;;;;;;-0.98;100.00;151120.88;4985984;28;20552;-84
2023/11/29 01:07:35;;;;;;;13.80;8.23;;;;;;;-0.99;100.00;151119.56;4984175;28;20820;-84
2023/11/29 01:10:02;;;;;;;11.73;8.40;;;;;;;-1.01;100.00;151113.16;4983688;28;20569;-84
2023/11/29 01:12:28;;;;;;;11.80;7.50;;;;;;;-1.05;100.00;151104.19;4986471;28;20484;-84
2023/11/29 01:14:55;;;;;;;13.60;9.00;;;;;;;-1.05;100.00;151102.88;4986116;28;20511;-84
2023/11/29 01:17:21;;;;;;;13.70;8.50;;;;;;;-1.07;100.00;151099.06;4984495;28;20880;-84
2023/11/29 01:19:49;;;;;;;14.50;8.77;;;;;;;-1.06;100.00;151100.34;4981778;28;21049;-84
2023/11/29 01:22:16;;;;;;;12.70;7.70;;;;;;;-1.01;100.00;151113.16;4984594;28;20449;-84
2023/11/29 01:24:43;;;;;;;13.50;8.80;;;;;;;-1.00;100.00;151115.69;4989456;28;20461;-84
2023/11/29 01:27:11;;;;;;;12.70;7.80;;;;;;;-1.03;100.00;151108.06;4974245;28;20445;-84
2023/11/29 01:29:37;;;;;;;12.90;8.80;;;;;;;-0.99;100.00;151118.28;4976378;28;20590;-84
2023/11/29 01:32:04;;;;;;;12.37;7.97;;;;;;;-0.96;100.00;151125.97;4981958;28;20489;-84
2023/11/29 01:34:31;;;;;;;13.00;8.10;;;;;;;-0.97;100.00;151123.41;4972089;28;20472;-84
2023/11/29 01:36:59;;;;;;;11.23;8.07;;;;;;;-0.98;100.00;151120.88;4983495;28;21192;-84
2023/11/29 01:39:26;;;;;;;13.00;8.13;;;;;;;-0.97;100.00;151123.41;4982558;28;20454;-84
2023/11/29 01:41:53;;;;;;;12.20;8.10;;;;;;;-0.97;100.00;151123.41;4979699;28;20877;-84
2023/11/29 01:44:19;;;;;;;12.23;7.50;;;;;;;-0.96;100.00;151125.97;4978438;28;20449;-84
2023/11/29 01:46:47;;;;;;;11.40;8.17;;;;;;;-0.97;100.00;151124.69;4968934;28;20870;-84
2023/11/29 01:49:13;;;;;;;12.17;7.70;;;;;;;-0.95;100.00;151129.81;4978647;28;20504;-84
2023/11/29 01:51:40;;;;;;;11.17;7.47;;;;;;;-0.95;100.00;151129.81;4987046;28;20861;-84
2023/11/29 01:54:08;;;;;;;13.20;8.07;;;;;;;-0.91;100.00;151138.78;4984039;28;20481;-84
2023/11/29 01:56:35;;;;;;;13.30;8.57;;;;;;;-0.89;100.00;151143.91;4984732;28;20457;-84
2023/11/29 01:59:01;;;;;;;12.60;7.97;;;;;;;-0.89;100.00;151143.91;4968479;28;21004;-84
2023/11/29 02:01:28;;;;;;;11.27;6.93;;;;;;;-0.91;100.00;151138.78;4986228;28;20450;-84
2023/11/29 02:03:55;;;;;;;11.97;7.43;;;;;;;-0.96;100.00;151127.28;4986996;28;20462;-84
2023/11/29 02:06:21;;;;;;;10.63;7.00;;;;;;;-0.95;100.00;151128.50;4987777;28;20468;-84
2023/11/29 02:08:48;;;;;;;10.43;6.47;;;;;;;-0.95;100.00;151129.81;4992279;28;20441;-84
2023/11/29 02:11:18;;;;;;;12.27;6.90;;;;;;;-0.98;100.00;151122.09;4986009;28;20457;-84
2023/11/29 02:13:45;;;;;;;9.37;5.43;;;;;;;-1.00;100.00;151117.00;4981673;28;20477;-84
2023/11/29 02:16:11;;;;;;;9.70;6.57;;;;;;;-1.04;100.00;151105.47;4986079;28;20466;-84
2023/11/29 02:18:40;;;;;;;10.30;6.20;;;;;;;-1.11;100.00;151087.53;4990111;28;20445;-84
2023/11/29 02:21:06;;;;;;;9.90;6.07;;;;;;;-1.16;100.00;151075.97;4988851;28;20548;-84
2023/11/29 02:23:37;;;;;;;9.40;5.70;;;;;;;-1.23;100.00;151059.34;4989118;28;20453;-84
2023/11/29 02:26:06;;;;;;;8.43;5.00;;;;;;;-1.25;100.00;151054.22;4990049;28;20457;-84
2023/11/29 02:28:33;;;;;;;9.33;6.10;;;;;;;-1.28;100.00;151046.50;4970978;28;20512;-84
2023/11/29 02:31:00;;;;;;;10.47;6.20;;;;;;;-1.36;100.00;151024.72;4971449;28;20556;-82
2023/11/29 02:33:27;;;;;;;11.70;6.30;;;;;;;-1.42;100.00;151010.63;4989234;28;20466;-84
2023/11/29 02:35:53;;;;;;;8.53;5.77;;;;;;;-1.43;100.00;151008.03;4987188;28;20464;-83
2023/11/29 02:38:21;;;;;;;10.20;6.40;;;;;;;-1.46;100.00;150999.09;4991190;28;20481;-83
2023/11/29 02:40:48;;;;;;;9.60;6.47;;;;;;;-1.59;100.00;150967.03;4990756;28;20457;-83
2023/11/29 02:43:16;;;;;;;7.97;4.80;;;;;;;-1.62;100.00;150959.38;4988563;28;20453;-83
2023/11/29 02:45:42;;;;;;;8.83;5.90;;;;;;;-1.72;100.00;150933.72;4989308;28;20465;-83
2023/11/29 02:48:09;;;;;;;9.73;5.70;;;;;;;-1.80;100.00;150913.22;4988232;28;20473;-83
2023/11/29 02:50:35;;;;;;;10.33;6.47;;;;;;;-1.83;100.00;150905.56;4991084;28;20468;-83
2023/11/29 02:53:02;;;;;;;9.97;5.97;;;;;;;-1.81;100.00;150909.38;4994804;28;20488;-83
2023/11/29 02:55:28;;;;;;;10.57;5.03;;;;;;;-1.85;100.00;150900.41;4987747;28;20510;-83
2023/11/29 02:57:57;;;;;;;8.27;5.60;;;;;;;-1.78;100.00;150917.09;4975745;28;20449;-83
2023/11/29 03:00:24;;;;;;;8.77;5.80;;;;;;;-1.78;100.00;150918.38;4973186;28;20477;-83
2023/11/29 03:02:51;;;;;;;9.17;5.47;;;;;;;-1.79;100.00;150914.50;4988897;28;20446;-83
2023/11/29 03:05:17;;;;;;;10.53;5.80;;;;;;;-1.78;100.00;150917.09;4988460;28;20819;-83
2023/11/29 03:07:44;;;;;;;12.63;5.77;;;;;;;-1.76;100.00;150922.19;4987047;28;20821;-83
2023/11/29 03:10:11;;;;;;;11.00;5.83;;;;;;;-1.74;100.00;150928.59;4972907;28;20549;-83
2023/11/29 03:12:37;;;;;;;10.93;6.07;;;;;;;-1.77;100.00;150920.91;4986167;28;20477;-83
2023/11/29 03:15:05;;;;;;;8.70;5.80;;;;;;;-1.79;100.00;150914.50;4984530;28;20515;-83
2023/11/29 03:17:33;;;;;;;7.93;5.17;;;;;;;-1.84;100.00;150902.97;4988061;28;20458;-83
2023/11/29 03:19:59;;;;;;;10.63;5.90;;;;;;;-1.81;100.00;150910.69;4987231;28;20833;-83
2023/11/29 03:22:26;;;;;;;9.93;5.23;;;;;;;-1.79;100.00;150914.50;4975600;28;20445;-83
2023/11/29 03:24:52;;;;;;;9.20;5.30;;;;;;;-1.93;100.00;150881.19;4989215;28;20547;-83
2023/11/29 03:27:19;;;;;;;10.57;6.50;;;;;;;-1.93;100.00;150879.91;4996641;28;20831;-83
2023/11/29 03:29:45;;;;;;;8.93;5.40;;;;;;;-1.97;100.00;150869.69;4978421;28;21073;-83
2023/11/29 03:32:12;;;;;;;14.07;7.27;;;;;;;-2.05;100.00;150849.19;4986488;28;20440;-83
2023/11/29 03:34:40;;;;;;;10.80;5.87;;;;;;;-2.02;100.00;150858.16;4986874;28;20460;-83
2023/11/29 03:37:06;;;;;;;11.13;6.73;;;;;;;-1.92;100.00;150882.50;4983807;28;20453;-83
2023/11/29 03:39:33;;;;;;;9.40;6.33;;;;;;;-1.83;100.00;150905.56;4989904;28;20462;-83
2023/11/29 03:42:00;;;;;;;10.40;7.60;;;;;;;-1.75;100.00;150924.78;4993877;28;20438;-83
2023/11/29 03:44:26;;;;;;;12.23;7.30;;;;;;;-1.74;100.00;150928.59;4988695;28;20458;-83
2023/11/29 03:46:53;;;;;;;10.00;6.37;;;;;;;-1.76;100.00;150923.47;4994286;28;20931;-83
2023/11/29 03:49:19;;;;;;;13.20;7.13;;;;;;;-1.69;100.00;150941.41;4995438;28;21006;-83
2023/11/29 03:51:47;;;;;;;11.00;7.07;;;;;;;-1.69;100.00;150941.41;4990465;28;20453;-83
2023/11/29 03:54:14;;;;;;;12.50;7.63;;;;;;;-1.60;100.00;150963.19;4988993;28;20480;-83
2023/11/29 03:56:41;;;;;;;10.80;7.47;;;;;;;-1.56;100.00;150974.72;4986627;28;20507;-83
2023/11/29 03:59:07;;;;;;;10.50;6.57;;;;;;;-1.54;100.00;150979.88;4992249;28;20511;-83
2023/11/29 04:01:34;;;;;;;14.80;7.00;;;;;;;-1.52;100.00;150985.00;4987454;28;20468;-83
2023/11/29 04:04:01;;;;;;;10.83;7.20;;;;;;;-1.48;100.00;150993.94;5005793;28;20436;-83
2023/11/29 04:06:29;;;;;;;9.20;6.60;;;;;;;-1.46;100.00;150999.09;4977075;28;20469;-83
2023/11/29 04:08:57;;;;;;;9.87;6.77;;;;;;;-1.47;100.00;150997.81;4989626;28;20444;-83
2023/11/29 04:11:24;;;;;;;13.57;7.70;;;;;;;-1.47;100.00;150997.81;4992486;28;20938;-84
2023/11/29 04:13:51;;;;;;;14.67;8.37;;;;;;;-1.45;100.00;151002.91;4995227;28;20512;-83
2023/11/29 04:16:20;;;;;;;13.33;8.57;;;;;;;-1.39;100.00;151017.03;4987566;28;20556;-83
2023/11/29 04:18:47;;;;;;;10.27;6.50;;;;;;;-1.37;100.00;151022.13;4977556;28;20858;-83
2023/11/29 04:21:19;;;;;;;9.70;5.77;;;;;;;-1.37;100.00;151022.13;4993502;28;20463;-83
2023/11/29 04:23:46;;;;;;;12.47;7.27;;;;;;;-1.41;100.00;151013.19;4975147;28;20471;-83
2023/11/29 04:26:32;;;;;;;14.90;8.30;;;;;;;-1.41;100.00;151013.19;4989881;28;20875;-83
2023/11/29 04:28:59;;;;;;;11.37;7.73;;;;;;;-1.43;100.00;151006.78;4979010;28;20947;-83
2023/11/29 04:31:26;;;;;;;13.90;8.37;;;;;;;-1.42;100.00;151009.31;4987307;28;20500;-83
2023/11/29 04:33:53;;;;;;;15.43;9.33;;;;;;;-1.42;100.00;151010.63;4986123;28;20477;-83
2023/11/29 04:36:20;;;;;;;10.70;6.40;;;;;;;-1.38;100.00;151019.59;4987549;28;20516;-83
2023/11/29 04:38:48;;;;;;;9.30;6.23;;;;;;;-1.40;100.00;151015.72;4987092;28;20453;-83
2023/11/29 04:41:14;;;;;;;12.27;6.93;;;;;;;-1.39;100.00;151018.31;4969196;28;20482;-83
2023/11/29 04:43:42;;;;;;;13.07;8.27;;;;;;;-1.40;100.00;151014.44;4988314;28;20906;-83
2023/11/29 04:46:09;;;;;;;10.17;6.50;;;;;;;-1.41;100.00;151013.19;4984858;28;20501;-83
2023/11/29 04:48:36;;;;;;;14.10;8.23;;;;;;;-1.37;100.00;151023.44;4993712;28;20515;-83
2023/11/29 04:51:03;;;;;;;10.93;7.27;;;;;;;-1.33;100.00;151032.41;4989712;28;20533;-83
2023/11/29 04:53:30;;;;;;;10.77;6.77;;;;;;;-1.32;100.00;151036.22;4992856;28;20493;-83
2023/11/29 04:55:56;;;;;;;11.60;7.77;;;;;;;-1.31;100.00;151037.53;4996895;28;20808;-83
2023/11/29 04:58:23;;;;;;;11.33;6.67;;;;;;;-1.35;100.00;151028.53;5000124;28;20536;-83
2023/11/29 05:00:53;;;;;;;8.80;6.80;;;;;;;-1.29;100.00;151043.94;4984149;28;20461;-84
2023/11/29 05:03:19;;;;;;;13.47;7.70;;;;;;;-1.28;100.00;151046.50;4987437;28;20453;-84
2023/11/29 05:05:46;;;;;;;8.63;5.93;;;;;;;-1.29;100.00;151042.66;4989811;28;20860;-84
2023/11/29 05:08:13;;;;;;;11.37;6.40;;;;;;;-1.27;100.00;151049.06;4993374;28;20832;-84
2023/11/29 05:10:39;;;;;;;10.17;5.77;;;;;;;-1.26;100.00;151051.63;4985226;28;20520;-84
2023/11/29 05:13:06;;;;;;;11.97;6.80;;;;;;;-1.24;100.00;151055.44;4980543;28;20474;-84
2023/11/29 05:15:33;;;;;;;10.20;7.30;;;;;;;-1.23;100.00;151059.34;4984505;28;20596;-84
2023/11/29 05:18:01;;;;;;;11.17;6.70;;;;;;;-1.18;100.00;151070.84;4991845;28;20442;-83
2023/11/29 05:20:27;;;;;;;10.53;6.47;;;;;;;-1.14;100.00;151081.13;4985465;28;20508;-83
2023/11/29 05:22:54;;;;;;;10.80;6.97;;;;;;;-1.15;100.00;151078.56;4986193;28;20457;-83
2023/11/29 05:25:20;;;;;;;13.10;6.70;;;;;;;-1.15;100.00;151077.25;4971754;28;20457;-84
2023/11/29 05:27:47;;;;;;;10.37;5.13;;;;;;;-1.15;100.00;151077.25;4986988;28;20505;-83
2023/11/29 05:30:14;;;;;;;8.47;5.17;;;;;;;-1.18;100.00;151069.56;4987008;28;20479;-83
2023/11/29 05:32:41;;;;;;;8.00;5.33;;;;;;;-1.22;100.00;151061.88;4985270;28;20824;-83
2023/11/29 05:35:09;;;;;;;8.87;5.30;;;;;;;-1.19;100.00;151067.03;4977840;28;20810;-83
2023/11/29 05:37:36;;;;;;;9.63;6.40;;;;;;;-1.22;100.00;151060.63;4986988;28;20887;-84
2023/11/29 05:40:03;;;;;;;10.53;6.47;;;;;;;-1.25;100.00;151054.22;4968581;28;20979;-83
2023/11/29 05:42:30;;;;;;;10.73;7.00;;;;;;;-1.25;100.00;151052.91;4994505;28;20457;-83
2023/11/29 05:44:56;;;;;;;10.10;6.90;;;;;;;-1.22;100.00;151061.88;4984916;28;20461;-83
2023/11/29 05:47:23;;;;;;;9.37;5.90;;;;;;;-1.16;100.00;151075.97;4982775;28;20454;-83
2023/11/29 05:49:50;;;;;;;13.10;6.70;;;;;;;-1.16;100.00;151075.97;4984552;28;20496;-83
2023/11/29 05:52:18;;;;;;;9.97;6.20;;;;;;;-1.13;100.00;151082.38;4993572;28;20457;-83
2023/11/29 05:54:45;;;;;;;9.83;5.47;;;;;;;-1.14;100.00;151079.84;4985169;28;20477;-83
2023/11/29 05:57:12;;;;;;;8.00;5.27;;;;;;;-1.12;100.00;151084.97;4996162;28;20954;-83
2023/11/29 05:59:38;;;;;;;9.60;4.90;;;;;;;-1.08;100.00;151096.47;4994013;28;20484;-84
2023/11/29 06:02:05;;;;;;;8.50;5.27;;;;;;;-1.09;100.00;151093.94;4991743;28;20516;-83
2023/11/29 06:04:32;;;;;;;12.77;5.93;;;;;;;-1.05;100.00;151104.19;4986132;28;20464;-83
2023/11/29 06:06:58;;;;;;;8.07;4.70;;;;;;;-1.02;100.00;151111.88;4998088;28;20449;-83
2023/11/29 06:09:28;;;;;;;9.40;5.33;;;;;;;-0.98;100.00;151120.88;4997272;28;20453;-83
2023/11/29 06:11:55;;;;;;;11.97;6.10;;;;;;;-0.98;100.00;151120.88;4994697;28;20460;-84
2023/11/29 06:14:22;;;;;;;11.73;7.40;;;;;;;-0.93;100.00;151134.97;4998165;28;20826;-83
2023/11/29 06:16:49;;;;;;;9.97;6.23;;;;;;;-0.94;100.00;151131.09;4993855;28;20559;-83
2023/11/29 06:19:16;;;;;;;9.83;5.83;;;;;;;-0.91;100.00;151140.09;4997574;28;20533;-83
2023/11/29 06:21:44;;;;;;;11.43;5.60;;;;;;;-0.91;100.00;151140.09;5002049;28;20869;-83
2023/11/29 06:24:11;;;;;;;9.17;5.50;;;;;;;-0.87;100.00;151149.03;4996804;28;20488;-83
2023/11/29 06:26:39;;;;;;;9.43;5.50;;;;;;;-0.87;100.00;151150.31;5002172;28;20448;-84
2023/11/29 06:29:05;;;;;;;10.93;7.00;;;;;;;-0.85;100.00;151154.19;4996961;28;20460;-83
2023/11/29 06:31:32;;;;;;;12.37;6.17;;;;;;;-0.82;100.00;151161.91;4995301;28;20476;-83
2023/11/29 06:33:58;;;;;;;10.33;6.70;;;;;;;-0.81;100.00;151165.72;4969051;28;20500;-83
2023/11/29 06:36:25;;;;;;;10.27;6.17;;;;;;;-0.79;100.00;151170.84;4982410;28;20529;-83
2023/11/29 06:38:52;;;;;;;9.97;6.47;;;;;;;-0.78;100.00;151172.13;4990113;28;20449;-84
2023/11/29 06:41:19;;;;;;;8.20;6.27;;;;;;;-0.77;100.00;151174.72;4995020;28;20455;-83
2023/11/29 06:43:47;;;;;;;9.10;6.10;;;;;;;-0.77;100.00;151175.97;4995415;28;20440;-83
2023/11/29 06:46:14;;;;;;;11.67;6.23;;;;;;;-0.77;100.00;151174.72;4996833;28;20458;-83
2023/11/29 06:48:40;;;;;;;8.07;6.17;;;;;;;-0.75;100.00;151179.84;4993907;28;20460;-83
2023/11/29 06:51:07;;;;;;;9.90;6.30;;;;;;;-0.73;100.00;151184.94;4981259;28;20458;-74
2023/11/29 06:53:35;;;;;;;9.80;6.17;;;;;;;-0.69;100.00;151195.25;4979912;28;20482;-74
2023/11/29 06:56:02;;;;;;;11.67;6.37;;;;;;;-0.68;100.00;151199.06;4995518;28;20460;-74
2023/11/29 06:58:29;;;;;;;10.17;5.43;;;;;;;-0.67;100.00;151200.34;4996185;28;20469;-74
2023/11/29 07:00:57;;;;;;;12.30;7.43;;;;;;;-0.68;100.00;151197.78;4995744;28;20457;-74
2023/11/29 07:03:26;;;;;;;9.63;6.10;;;;;;;-0.68;100.00;151197.78;4996826;28;20508;-74
2023/11/29 07:05:52;;;;;;;8.00;5.73;;;;;;;-0.67;100.00;151200.34;4997732;28;20895;-74
2023/11/29 07:08:19;;;;;;;9.70;6.60;;;;;;;-0.66;100.00;151204.19;4999722;28;20452;-74
2023/11/29 07:10:46;;;;;;;9.60;6.70;;;;;;;-0.65;100.00;151205.47;4979824;28;20785;-74
2023/11/29 07:13:13;;;;;;;11.80;6.83;;;;;;;-0.63;100.00;151211.88;4981608;28;21039;-74
2023/11/29 07:15:40;;;;;;;9.87;6.97;;;;;;;-0.63;100.00;151210.59;4995895;28;20466;-75
2023/11/29 07:18:11;;;;;;;9.63;6.23;;;;;;;-0.61;100.00;151215.75;4991235;28;20469;-74
2023/11/29 07:20:40;;;;;;;10.00;6.00;;;;;;;-0.59;100.00;151220.88;4991030;28;20473;-74
2023/11/29 07:23:10;;;;;;;9.13;5.70;;;;;;;-0.57;100.00;151224.69;4994691;28;20840;-74
2023/11/29 07:25:37;;;;;;;8.23;6.33;;;;;;;-0.57;100.00;151226.00;4994138;28;20458;-75
2023/11/29 07:28:10;;;;;;;9.00;6.23;;;;;;;-0.59;100.00;151219.59;4995979;28;20515;-74
2023/11/29 07:30:37;;;;;;;9.10;6.00;;;;;;;-0.57;100.00;151226.00;4992998;28;20460;-75
2023/11/29 07:33:04;;;;;;;10.70;6.30;;;;;;;-0.53;100.00;151236.22;4995900;28;20974;-74
2023/11/29 07:35:36;;;;;;;9.37;7.10;;;;;;;-0.53;100.00;151236.22;4975493;28;20496;-74
2023/11/29 07:38:07;;;;;;;8.13;5.90;;;;;;;-0.51;100.00;151240.09;4995851;28;20461;-74
2023/11/29 07:40:34;;;;;;;11.00;6.33;;;;;;;-0.50;100.00;151242.69;4997574;28;20460;-74
2023/11/29 07:43:00;;;;;;;9.87;6.43;;;;;;;-0.45;100.00;151256.75;4989625;28;20480;-74
2023/11/29 07:45:27;;;;;;;11.40;6.37;;;;;;;-0.43;100.00;151261.94;4993657;28;20456;-74
2023/11/29 07:47:53;;;;;;;8.23;5.93;;;;;;;-0.42;100.00;151264.47;4979219;28;20453;-74
2023/11/29 07:50:21;;;;;;;11.57;6.27;;;;;;;-0.37;100.00;151277.28;4990869;28;20456;-74
2023/11/29 07:52:51;;;;;;;9.77;6.33;;;;;;;-0.35;100.00;151282.44;4996920;28;20555;-75
2023/11/29 07:55:17;;;;;;;9.17;6.17;;;;;;;-0.32;100.00;151290.09;4996367;28;20827;-75
2023/11/29 07:57:45;;;;;;;8.07;5.60;;;;;;;-0.29;100.00;151297.81;4995127;28;20465;-74
2023/11/29 08:00:13;;;;;;;7.43;4.97;;;;;;;-0.26;100.00;151304.22;4996375;28;20852;-75
2023/11/29 08:02:42;;;;;;;9.50;5.93;;;;;;;-0.25;100.00;151308.09;4964437;28;21082;-75
2023/11/29 08:05:09;;;;;;;9.67;5.67;;;;;;;-0.24;100.00;151309.38;4995242;28;20960;-74
2023/11/29 08:07:38;;;;;;;7.30;5.80;;;;;;;-0.24;100.00;151310.63;4997052;28;20457;-74
2023/11/29 08:10:08;;;;;;;7.80;5.10;;;;;;;-0.23;100.00;151313.22;4996299;28;20449;-75
2023/11/29 08:12:35;;;;;;;9.07;5.00;;;;;;;-0.22;100.00;151314.50;4966302;28;20457;-75
2023/11/29 08:15:02;;;;;;;7.70;5.23;;;;;;;-0.23;100.00;151313.22;4989453;28;20520;-75
2023/11/29 08:17:29;;;;;;;8.40;6.17;;;;;;;-0.24;100.00;151310.63;4994725;28;20457;-75
2023/11/29 08:19:55;;;;;;;7.97;5.20;;;;;;;-0.22;100.00;151315.81;4994854;28;20467;-76
2023/11/29 08:22:22;;;;;;;8.53;5.03;;;;;;;-0.20;100.00;151319.63;4999854;28;20453;-76
2023/11/29 08:24:48;;;;;;;7.43;5.20;;;;;;;-0.19;100.00;151323.50;4992923;28;20566;-76
2023/11/29 08:27:18;;;;;;;7.97;5.17;;;;;;;-0.18;100.00;151324.75;4994115;28;20457;-75
2023/11/29 08:29:45;;;;;;;8.47;5.67;;;;;;;-0.15;100.00;151332.47;4998221;28;20456;-76
2023/11/29 08:32:11;;;;;;;8.20;5.20;;;;;;;-0.13;100.00;151338.88;4989066;28;20551;-75
2023/11/29 08:34:38;;;;;;;8.60;5.27;;;;;;;-0.12;100.00;151341.44;4993335;28;20526;-75
2023/11/29 08:37:05;;;;;;;8.40;5.20;;;;;;;-0.10;100.00;151346.56;4994778;28;20830;-75
2023/11/29 08:39:31;;;;;;;7.13;5.10;;;;;;;-0.05;100.00;151358.09;4969086;28;20468;-75
2023/11/29 08:41:58;;;;;;;9.00;5.27;;;;;;;-0.04;100.00;151361.97;4993306;28;20462;-75
2023/11/29 08:44:26;;;;;;;8.07;4.87;;;;;;;-0.04;100.00;151360.69;4995088;28;20448;-76
2023/11/29 08:46:52;;;;;;;8.57;4.63;;;;;;;-0.02;100.00;151367.09;4989185;28;20472;-75
2023/11/29 08:49:19;;;;;;;7.40;5.20;;;;;;;0.00;100.00;151370.97;4993457;28;20473;-75
2023/11/29 08:51:46;;;;;;;7.60;4.77;;;;;;;0.02;100.00;151374.81;4990429;28;20452;-75
2023/11/29 08:54:13;;;;;;;9.00;5.07;;;;;;;0.02;100.00;151374.81;4984938;28;21126;-73
2023/11/29 08:56:40;;;;;;;6.17;5.20;;;;;;;0.05;100.00;151382.50;4966063;28;20544;-75
2023/11/29 08:59:07;;;;;;;5.57;4.60;;;;;;;0.07;100.00;151387.63;4974787;28;20457;-75
2023/11/29 09:01:35;;;;;;;7.60;5.00;;;;;;;0.07;100.00;151388.94;4975114;28;20478;-75
2023/11/29 09:04:02;;;;;;;8.20;5.40;;;;;;;0.12;100.00;151400.47;4975920;28;20453;-75
2023/11/29 09:06:31;;;;;;;7.33;5.17;;;;;;;0.11;100.00;151397.94;4964368;28;20471;-74
2023/11/29 09:08:58;;;;;;;6.40;5.13;;;;;;;0.14;100.00;151405.59;4976533;28;21382;-75
2023/11/29 09:11:24;;;;;;;6.90;5.00;;;;;;;0.17;100.00;151414.59;4969173;28;20529;-75
2023/11/29 09:13:51;;;;;;;9.50;5.40;;;;;;;0.19;100.00;151418.41;4960723;28;20525;-75
2023/11/29 09:16:18;;;;;;;5.97;4.30;;;;;;;0.20;100.00;151422.28;4977147;28;20469;-75
2023/11/29 09:18:47;;;;;;;6.07;4.90;;;;;;;0.21;100.00;151424.88;4976934;28;20696;-75
2023/11/29 09:21:14;;;;;;;6.43;4.20;;;;;;;0.22;100.00;151427.41;4984877;28;20450;-75
2023/11/29 09:23:41;;;;;;;8.80;5.10;;;;;;;0.22;100.00;151426.13;4962516;28;20538;-75
2023/11/29 09:26:07;;;;;;;6.70;5.07;;;;;;;0.26;100.00;151436.41;4967400;28;20446;-75
2023/11/29 09:28:34;;;;;;;7.23;5.03;;;;;;;0.28;100.00;151441.53;4966039;28;20478;-75
2023/11/29 09:31:03;;;;;;;5.83;4.90;;;;;;;0.29;100.00;151444.13;4970577;28;20812;-75
2023/11/29 09:33:30;;;;;;;7.17;4.40;;;;;;;0.29;100.00;151444.13;4989815;28;20973;-75
2023/11/29 09:35:57;;;;;;;6.63;4.53;;;;;;;0.32;100.00;151453.06;4973241;28;20821;-75
2023/11/29 09:38:24;;;;;;;7.27;4.60;;;;;;;0.33;100.00;151454.38;4971725;28;20976;-75
2023/11/29 09:40:51;;;;;;;6.97;4.30;;;;;;;0.34;100.00;151458.25;4957284;28;21020;-75
2023/11/29 09:43:18;;;;;;;5.33;4.40;;;;;;;0.37;100.00;151465.91;4986583;28;20826;-75
2023/11/29 09:45:44;;;;;;;7.00;4.93;;;;;;;0.38;100.00;151467.19;4967176;28;20928;-75
2023/11/29 09:48:11;;;;;;;6.40;4.20;;;;;;;0.39;100.00;151469.78;4956652;28;20454;-75
2023/11/29 09:50:38;;;;;;;8.00;4.93;;;;;;;0.43;100.00;151480.03;4976290;28;20569;-75
2023/11/29 09:53:06;;;;;;;6.03;4.40;;;;;;;0.46;100.00;151487.75;4979841;28;20503;-75
2023/11/29 09:55:33;;;;;;;5.97;4.63;;;;;;;0.49;100.00;151496.75;4988235;28;20465;-75
2023/11/29 09:58:00;;;;;;;5.40;4.00;;;;;;;0.50;100.00;151498.03;4991888;28;20458;-75
2023/11/29 10:00:28;;;;;;;6.77;4.43;;;;;;;0.50;100.00;151499.28;4996844;28;20453;-75
2023/11/29 10:02:54;;;;;;;7.03;4.63;;;;;;;0.49;100.00;151496.75;4996247;28;20834;-76
2023/11/29 10:05:21;;;;;;;6.60;4.10;;;;;;;0.51;100.00;151500.56;4995726;28;21611;-75
2023/11/29 10:07:48;;;;;;;4.50;3.93;;;;;;;0.52;100.00;151503.16;4994406;28;20559;-75
2023/11/29 10:10:16;;;;;;;6.70;4.23;;;;;;;0.55;100.00;151510.88;4993610;28;20447;-75
2023/11/29 10:12:44;;;;;;;6.23;4.33;;;;;;;0.56;100.00;151513.41;4995290;28;20453;-75
2023/11/29 10:15:10;;;;;;;5.30;4.03;;;;;;;0.59;100.00;151521.13;4992351;28;20854;-75
2023/11/29 10:17:37;;;;;;;5.53;4.20;;;;;;;0.60;100.00;151523.72;4995868;28;20459;-75
2023/11/29 10:20:07;;;;;;;6.90;4.60;;;;;;;0.60;100.00;151525.00;4993275;28;20449;-75
2023/11/29 10:22:34;;;;;;;5.70;4.40;;;;;;;0.60;100.00;151523.72;4994198;28;20469;-75
2023/11/29 10:25:16;;;;;;;5.97;4.20;;;;;;;0.63;100.00;151531.41;4994689;28;20452;-75
2023/11/29 10:27:45;;;;;;;5.60;4.20;;;;;;;0.65;100.00;151536.53;4996102;28;20479;-75
2023/11/29 10:30:13;;;;;;;7.67;4.87;;;;;;;0.68;100.00;151542.97;4993661;28;20543;-75
2023/11/29 10:32:40;;;;;;;6.20;3.90;;;;;;;0.74;100.00;151558.38;4987775;28;20584;-76
2023/11/29 10:35:08;;;;;;;6.20;4.23;;;;;;;0.83;100.00;151581.47;4993628;28;20484;-75
2023/11/29 10:37:35;;;;;;;4.87;3.50;;;;;;;0.86;100.00;151589.19;4992071;28;20974;-75
2023/11/29 10:40:03;;;;;;;4.73;4.07;;;;;;;0.88;100.00;151595.59;4993647;28;20444;-75
2023/11/29 10:42:29;;;;;;;6.10;4.37;;;;;;;0.90;100.00;151599.47;4997268;28;20468;-75
2023/11/29 10:44:58;;;;;;;5.77;4.10;;;;;;;0.92;100.00;151604.59;4997206;28;20994;-75
2023/11/29 10:47:32;;;;;;;6.10;4.27;;;;;;;0.91;100.00;151603.31;4996703;28;20520;-75
2023/11/29 10:50:02;;;;;;;8.23;5.27;;;;;;;0.92;100.00;151605.91;4997718;28;20549;-75
2023/11/29 10:52:29;;;;;;;13.70;7.00;;;;;;;0.96;100.00;151616.16;4997633;28;20462;-76
2023/11/29 10:54:56;;;;;;;11.93;6.67;;;;;;;0.96;100.00;151616.16;4995267;28;20473;-75
2023/11/29 10:57:31;;;;;;;11.67;6.57;;;;;;;0.98;100.00;151621.28;4997322;28;20487;-75
2023/11/29 11:00:06;;;;;;;18.23;9.80;;;;;;;0.99;100.00;151622.56;4981285;28;20448;-75
2023/11/29 11:02:33;;;;;;;8.97;5.90;;;;;;;1.01;100.00;151628.97;4998056;28;20465;-75
2023/11/29 11:05:05;;;;;;;11.40;6.17;;;;;;;1.02;100.00;151630.28;4999304;28;21059;-75
2023/11/29 11:07:39;;;;;;;11.47;6.87;;;;;;;1.04;100.00;151635.41;4997160;28;20464;-75
2023/11/29 11:10:11;;;;;;;13.90;8.07;;;;;;;1.04;100.00;151636.69;4997171;28;20511;-75
2023/11/29 11:12:38;;;;;;;11.00;7.67;;;;;;;1.05;100.00;151638.00;4996986;28;20453;-75
2023/11/29 11:15:12;;;;;;;12.20;6.97;;;;;;;1.06;100.00;151641.81;4981199;28;20468;-75